Flight Track Log - Related Links

Times and Time Zones

All times are in EDT time to prevent confusion due to time zone crossing. See the DAL1240 flight status page for this flight to view local times or setup timezone preferences in your user account.

Time Position Orientation Groundspeed Altitude Reporting Facility
EDT Latitude Longitude Course Direction KTS MPH feet Rate Location/Type
Mon 11:01:58 AM 33.6500 -84.3833 252° West 175 201 2,300  Level Atlanta TRACON
Mon 11:02:52 AM 33.6667 -84.3333 68° East 244 281 3,700 2,105 Climbing Atlanta TRACON
Mon 11:03:52 AM 33.7167 -84.2833 40° Northeast 292 336 6,300 3,050 Climbing Atlanta TRACON
Mon 11:04:00 AM 33.8001 -84.3756 270° West  Level FlightAware Approximate
Mon 11:05:00 AM 33.8000 -84.5173 270° West  Level FlightAware Approximate
Mon 11:05:53 AM 33.8083 -84.4014 313° West 262 302 12,900  Level Atlanta Center
Mon 11:06:00 AM 33.7890 -84.6568 252° West  Level FlightAware Approximate
Mon 11:06:54 AM 33.8081 -84.4889 270° West 276 318 14,500  Level Atlanta Center
Mon 11:07:00 AM 33.7519 -84.7912 252° West  Level FlightAware Approximate
Mon 11:07:53 AM 33.8075 -84.6014 270° West 294 338 16,600  Level Atlanta Center
Mon 11:08:53 AM 33.7800 -84.7061 252° West 321 369 18,000 1,750 Climbing Atlanta Center
Mon 11:09:53 AM 33.7522 -84.8208 254° West 337 388 20,100 1,950 Climbing Atlanta Center
Mon 11:10:53 AM 33.7242 -84.9331 253° West 350 403 21,900 1,700 Climbing Atlanta Center
Mon 11:11:53 AM 33.6961 -85.0450 253° West 355 409 23,500 1,550 Climbing Atlanta Center
Mon 11:12:53 AM 33.6681 -85.1594 254° West 360 414 25,000 1,450 Climbing Atlanta Center
Mon 11:13:53 AM 33.6481 -85.2789 259° West 360 414 26,400 1,050 Climbing Atlanta Center
Mon 11:14:53 AM 33.6511 -85.4014 272° West 367 422 27,100 600 Climbing Atlanta Center
Mon 11:15:53 AM 33.6536 -85.5361 271° West 390 449 27,600 1,000 Climbing Atlanta Center
Mon 11:16:53 AM 33.6583 -85.6711 272° West 404 465 29,100 1,200 Climbing Atlanta Center
Mon 11:17:53 AM 33.6586 -85.7883 270° West 399 459 30,000 450 Climbing Atlanta Center
Mon 11:18:53 AM 33.6589 -85.9131 270° West 389 448 30,000  Level Atlanta Center
Mon 11:19:53 AM 33.6631 -86.0431 272° West 389 448 30,000  Level Atlanta Center
Mon 11:20:53 AM 33.6631 -86.1753 270° West 389 448 30,000  Level Atlanta Center
Mon 11:21:53 AM 33.6628 -86.3100 270° West 395 455 30,000  Level Atlanta Center
Mon 11:22:53 AM 33.6644 -86.4447 271° West 402 463 30,000  Level Atlanta Center
Mon 11:23:53 AM 33.6658 -86.5797 271° West 402 463 30,000  Level Atlanta Center
Mon 11:24:53 AM 33.6672 -86.7119 271° West 402 463 30,000  Level Atlanta Center
Mon 11:25:53 AM 33.6664 -86.8417 270° West 402 463 30,000  Level Atlanta Center
Mon 11:26:53 AM 33.6633 -86.9739 268° West 402 463 30,000  Level Atlanta Center
Mon 11:27:53 AM 33.6578 -87.1086 267° West 402 463 30,000  Level Atlanta Center
Mon 11:28:53 AM 33.6503 -87.2431 266° West 402 463 30,000  Level Atlanta Center
Mon 11:30:10 AM 33.6431 -87.4153 267° West 405 466 30,000  Level Memphis Center
Mon 11:31:09 AM 33.6336 -87.5478 265° West 405 466 30,000  Level Memphis Center
Mon 11:32:10 AM 33.6283 -87.6828 267° West 405 466 30,000  Level Memphis Center
Mon 11:33:09 AM 33.6206 -87.8153 266° West 405 466 30,000  Level Memphis Center
Mon 11:34:09 AM 33.6108 -87.9503 265° West 405 466 30,000  Level Memphis Center
Mon 11:35:10 AM 33.6050 -88.0825 267° West 405 466 30,000  Level Memphis Center
Mon 11:36:09 AM 33.5947 -88.2125 265° West 405 466 30,000  Level Memphis Center
Mon 11:37:10 AM 33.5886 -88.3447 267° West 405 466 30,000  Level Memphis Center
Mon 11:38:10 AM 33.5803 -88.4747 266° West 405 466 30,000  Level Memphis Center
Mon 11:39:10 AM 33.5739 -88.6044 267° West 405 466 30,000  Level Memphis Center
Mon 11:40:09 AM 33.5653 -88.7367 266° West 405 466 30,000  Level Memphis Center
Mon 11:41:10 AM 33.5586 -88.8789 267° West 405 466 30,000  Level Memphis Center
Mon 11:42:10 AM 33.5517 -89.0111 266° West 405 466 30,000  Level Memphis Center
Mon 11:43:09 AM 33.5428 -89.1433 265° West 405 466 30,000  Level Memphis Center
Mon 11:44:10 AM 33.5333 -89.2756 265° West 405 466 30,000  Level Memphis Center
Mon 11:45:09 AM 33.5242 -89.4078 265° West 405 466 30,000  Level Memphis Center
Mon 11:46:09 AM 33.5167 -89.5400 266° West 405 466 30,000  Level Memphis Center
Mon 11:47:10 AM 33.5072 -89.6719 265° West 405 466 30,000  Level Memphis Center
Mon 11:48:10 AM 33.4972 -89.8042 265° West 405 466 30,000  Level Memphis Center
Mon 11:49:09 AM 33.4875 -89.9339 265° West 405 466 30,000  Level Memphis Center
Mon 11:50:09 AM 33.4772 -90.0633 265° West 405 466 30,000  Level Memphis Center
Mon 11:51:09 AM 33.4692 -90.1928 266° West 405 466 30,000  Level Memphis Center
Mon 11:52:09 AM 33.4611 -90.3075 265° West 405 466 30,000  Level Memphis Center
Mon 11:53:10 AM 33.4506 -90.4344 264° West 399 459 30,000  Level Memphis Center
Mon 11:54:10 AM 33.4419 -90.5614 265° West 394 453 30,000  Level Memphis Center
Mon 11:55:09 AM 33.4314 -90.6883 264° West 389 448 30,000  Level Memphis Center
Mon 11:56:10 AM 33.4206 -90.8178 264° West 389 448 30,000  Level Memphis Center
Mon 11:57:09 AM 33.4117 -90.9444 265° West 389 448 30,000  Level Memphis Center
Mon 11:58:09 AM 33.3983 -91.0764 263° West 389 448 30,000  Level Memphis Center
Mon 11:59:09 AM 33.3892 -91.2056 265° West 389 448 30,000  Level Memphis Center
Mon 12:00:09 PM 33.3800 -91.3350 265° West 389 448 30,000  Level Memphis Center
Mon 12:01:09 PM 33.3664 -91.4642 263° West 389 448 30,000  Level Memphis Center
Mon 12:02:43 PM 33.3617 -91.6686 268° West 364 419 30,000  Level Fort Worth Center
Mon 12:03:42 PM 33.3486 -91.7964 263° West 375 432 30,000  Level Fort Worth Center
Mon 12:04:42 PM 33.3378 -91.9264 264° West 394 453 30,000  Level Fort Worth Center
Mon 12:05:43 PM 33.3222 -92.0539 262° West 400 460 30,000  Level Fort Worth Center
Mon 12:06:42 PM 33.3131 -92.1839 265° West 400 460 30,000  Level Fort Worth Center
Mon 12:07:42 PM 33.3039 -92.3136 265° West 400 460 30,000  Level Fort Worth Center
Mon 12:08:43 PM 33.2903 -92.4436 263° West 400 460 30,000  Level Fort Worth Center
Mon 12:09:42 PM 33.2767 -92.5736 263° West 400 460 30,000  Level Fort Worth Center
Mon 12:10:42 PM 33.2647 -92.7008 264° West 395 455 30,000  Level Fort Worth Center
Mon 12:11:43 PM 33.2531 -92.8306 264° West 395 455 30,000  Level Fort Worth Center
Mon 12:12:42 PM 33.2450 -92.9575 266° West 395 455 30,000  Level Fort Worth Center
Mon 12:13:43 PM 33.2369 -93.0872 266° West 390 449 30,000  Level Fort Worth Center
Mon 12:14:43 PM 33.2289 -93.2142 266° West 390 449 30,000  Level Fort Worth Center
Mon 12:15:42 PM 33.2183 -93.3414 264° West 390 449 30,000  Level Fort Worth Center
Mon 12:16:43 PM 33.2094 -93.4533 265° West 390 449 30,000  Level Fort Worth Center
Mon 12:18:00 PM 33.1935 -93.6208 264° West  Level FlightAware Approximate
Mon 12:18:43 PM 33.1881 -93.7100 264° West 390 449 30,000  Level Fort Worth Center
Mon 12:19:42 PM 33.1792 -93.8394 265° West 395 455 30,000  Level Fort Worth Center
Mon 12:20:43 PM 33.1683 -93.9714 264° West 395 455 30,000  Level Fort Worth Center
Mon 12:21:43 PM 33.1592 -94.0983 265° West 395 455 30,000  Level Fort Worth Center
Mon 12:22:42 PM 33.1522 -94.2275 266° West 395 455 30,000  Level Fort Worth Center
Mon 12:23:43 PM 33.1408 -94.3569 264° West 395 455 30,000  Level Fort Worth Center
Mon 12:24:43 PM 33.1314 -94.4864 265° West 395 455 30,000  Level Fort Worth Center
Mon 12:25:42 PM 33.1197 -94.6156 264° West 395 455 30,000  Level Fort Worth Center
Mon 12:26:43 PM 33.1100 -94.7450 265° West 395 455 30,000  Level Fort Worth Center
Mon 12:27:42 PM 33.0983 -94.8867 264° West 395 455 30,000  Level Fort Worth Center
Mon 12:28:42 PM 33.0861 -95.0133 263° West 395 455 30,000  Level Fort Worth Center
Mon 12:29:42 PM 33.0761 -95.1450 265° West 390 449 30,000  Level Fort Worth Center
Mon 12:30:42 PM 33.0636 -95.2692 263° West 390 449 30,000  Level Fort Worth Center
Mon 12:31:43 PM 33.0533 -95.4008 265° West 390 449 30,000  Level Fort Worth Center
Mon 12:32:43 PM 33.0425 -95.5275 264° West 390 449 30,000  Level Fort Worth Center
Mon 12:33:42 PM 33.0339 -95.6542 265° West 390 449 30,000  Level Fort Worth Center
Mon 12:34:42 PM 33.0211 -95.7831 263° West 390 449 30,000  Level Fort Worth Center
Mon 12:35:43 PM 33.0122 -95.9097 265° West 390 449 30,000  Level Fort Worth Center
Mon 12:36:42 PM 32.9992 -96.0386 263° West 395 455 30,000  Level Fort Worth Center
Mon 12:37:42 PM 32.9881 -96.1678 264° West 389 448 30,000  Level Fort Worth Center
Mon 12:38:42 PM 32.9767 -96.2942 264° West 389 448 30,000  Level Fort Worth Center
Mon 12:39:42 PM 32.9631 -96.4256 263° West 389 448 30,000  Level Fort Worth Center
Mon 12:40:42 PM 32.9536 -96.5369 264° West 394 453 30,000  Level Fort Worth Center
Mon 12:41:42 PM 32.9397 -96.6683 263° West 394 453 30,000  Level Fort Worth Center
Mon 12:42:42 PM 32.9278 -96.7947 264° West 389 448 30,000  Level Fort Worth Center
Mon 12:43:42 PM 32.9139 -96.9233 263° West 394 453 30,000  Level Fort Worth Center
Mon 12:44:43 PM 32.8997 -97.0644 263° West 389 448 30,000  Level Fort Worth Center
Mon 12:45:42 PM 32.8875 -97.1783 263° West 389 448 30,000  Level Fort Worth Center
Mon 12:46:42 PM 32.8667 -97.3269 261° West 407 468 30,000  Level Fort Worth Center
Mon 12:47:42 PM 32.8500 -97.4556 261° West 406 467 30,000  Level Fort Worth Center
Mon 12:48:42 PM 32.8333 -97.5817 261° West 406 467 30,000  Level Fort Worth Center
Mon 12:49:42 PM 32.8142 -97.6978 259° West 406 467 30,000  Level Fort Worth Center
Mon 12:50:42 PM 32.7972 -97.8261 261° West 399 459 30,000  Level Fort Worth Center
Mon 12:51:42 PM 32.7758 -97.9544 259° West 399 459 30,000  Level Fort Worth Center
Mon 12:52:42 PM 32.7606 -98.0853 262° West 399 459 30,000  Level Fort Worth Center
Mon 12:53:43 PM 32.7389 -98.2136 259° West 399 459 30,000  Level Fort Worth Center
Mon 12:54:42 PM 32.7214 -98.3444 261° West 399 459 30,000  Level Fort Worth Center
Mon 12:55:43 PM 32.7014 -98.4800 260° West 398 458 30,000  Level Fort Worth Center
Mon 12:56:42 PM 32.6772 -98.6081 257° West 398 458 30,000  Level Fort Worth Center
Mon 12:57:42 PM 32.6553 -98.7358 259° West 398 458 30,000  Level Fort Worth Center
Mon 12:58:42 PM 32.6392 -98.8664 262° West 398 458 30,000  Level Fort Worth Center
Mon 12:59:43 PM 32.6186 -98.9969 259° West 398 458 30,000  Level Fort Worth Center
Mon 01:00:42 PM 32.6006 -99.1125 260° West 398 458 30,000  Level Fort Worth Center
Mon 01:01:42 PM 32.5819 -99.2403 260° West 398 458 30,000  Level Fort Worth Center
Mon 01:02:42 PM 32.5592 -99.3706 258° West 398 458 30,000  Level Fort Worth Center
Mon 01:03:42 PM 32.5383 -99.4983 259° West 404 465 30,000  Level Fort Worth Center
Mon 01:04:42 PM 32.5172 -99.6308 259° West 409 471 30,000  Level Fort Worth Center
Mon 01:05:42 PM 32.4961 -99.7608 259° West 409 471 30,000  Level Fort Worth Center
Mon 01:06:42 PM 32.4747 -99.8931 259° West 409 471 30,000  Level Fort Worth Center
Mon 01:07:43 PM 32.4700 -100.0261 268° West 409 471 30,000  Level Fort Worth Center
Mon 01:08:43 PM 32.4631 -100.1589 266° West 409 471 30,000  Level Fort Worth Center
Mon 01:09:42 PM 32.4558 -100.2914 266° West 404 465 30,000  Level Fort Worth Center
Mon 01:10:42 PM 32.4483 -100.4364 267° West 404 465 30,000  Level Fort Worth Center
Mon 01:11:42 PM 32.4408 -100.5692 266° West 404 465 30,000  Level Fort Worth Center
Mon 01:12:42 PM 32.4331 -100.7042 266° West 404 465 30,000  Level Fort Worth Center
Mon 01:13:42 PM 32.4233 -100.8367 265° West 404 465 30,000  Level Fort Worth Center
Mon 01:14:43 PM 32.4156 -100.9717 266° West 404 465 30,000  Level Fort Worth Center
Mon 01:15:43 PM 32.4075 -101.1044 266° West 404 465 30,000  Level Fort Worth Center
Mon 01:16:43 PM 32.4014 -101.2369 267° West 404 465 30,000  Level Fort Worth Center
Mon 01:17:43 PM 32.3914 -101.3594 265° West 404 465 30,000  Level Fort Worth Center
Mon 01:18:43 PM 32.3808 -101.4919 265° West 404 465 30,000  Level Fort Worth Center
Mon 01:19:43 PM 32.3722 -101.6267 266° West 404 465 30,000  Level Fort Worth Center
Mon 01:20:43 PM 32.3633 -101.7617 266° West 404 465 30,000  Level Fort Worth Center
Mon 01:21:42 PM 32.3525 -101.8939 264° West 404 465 30,000  Level Fort Worth Center
Mon 01:22:42 PM 32.3433 -102.0336 266° West 409 471 30,000  Level Fort Worth Center
Mon 01:23:42 PM 32.3319 -102.1681 264° West 415 478 30,000  Level Fort Worth Center
Mon 01:24:42 PM 32.3225 -102.3053 265° West 420 483 30,000  Level Fort Worth Center
Mon 01:25:42 PM 32.3131 -102.4425 265° West 425 489 30,000  Level Fort Worth Center
Mon 01:26:43 PM 32.3011 -102.5817 264° West 425 489 30,000  Level Fort Worth Center
Mon 01:27:42 PM 32.2911 -102.7214 265° West 425 489 30,000  Level Fort Worth Center
Mon 01:28:43 PM 32.2786 -102.8678 264° West 419 482 30,000  Level Fort Worth Center
Mon 01:29:43 PM 32.2683 -103.0050 265° West 419 482 30,000  Level Fort Worth Center
Mon 01:30:42 PM 32.2581 -103.1417 265° West 424 488 30,000  Level Fort Worth Center
Mon 01:31:00 PM 32.2544 -103.1564 254° West 418 481 30,000  Level Albuquerque Center
Mon 01:32:02 PM 32.2397 -103.3208 264° West 420 483 30,000  Level Albuquerque Center
Mon 01:33:04 PM 32.2272 -103.4578 264° West 420 483 30,000  Level Albuquerque Center
Mon 01:34:06 PM 32.2161 -103.5947 265° West 420 483 30,000  Level Albuquerque Center
Mon 01:35:08 PM 32.2022 -103.7319 263° West 421 484 30,000  Level Albuquerque Center
Mon 01:36:10 PM 32.1947 -103.8711 266° West 424 488 30,000  Level Albuquerque Center
Mon 01:37:12 PM 32.1814 -104.0078 263° West 422 486 30,000  Level Albuquerque Center
Mon 01:38:14 PM 32.1661 -104.1717 264° West 424 488 30,000  Level Albuquerque Center
Mon 01:39:16 PM 32.1536 -104.3069 264° West 420 483 30,000  Level Albuquerque Center
Mon 01:40:18 PM 32.1406 -104.4453 264° West 423 487 30,000 -48 Level Albuquerque Center
Mon 01:41:20 PM 32.1267 -104.5819 263° West 423 487 29,900  Descending Albuquerque Center
Mon 01:42:22 PM 32.1136 -104.7150 263° West 415 478 30,000 48 Climbing Albuquerque Center
Mon 01:43:24 PM 32.1006 -104.8497 264° West 415 478 30,000  Level Albuquerque Center
Mon 01:44:26 PM 32.0833 -105.0178 263° West 427 491 30,000  Level Albuquerque Center
Mon 01:45:28 PM 32.0706 -105.1553 264° West 427 491 30,000  Level Albuquerque Center
Mon 01:46:30 PM 32.0564 -105.2928 263° West 426 490 30,000  Level Albuquerque Center
Mon 01:47:32 PM 32.0419 -105.4336 263° West 431 496 30,000  Level Albuquerque Center
Mon 01:48:34 PM 32.0278 -105.5703 263° West 425 489 30,000  Level Albuquerque Center
Mon 01:49:36 PM 32.0100 -105.7328 263° West 420 483 30,000  Level Albuquerque Center
Mon 01:51:00 PM 31.9830 -105.9103 263° West  Level FlightAware Approximate
Mon 01:51:40 PM 31.9814 -106.0053 263° West 426 490 30,000  Level Albuquerque Center
Mon 01:52:42 PM 31.9658 -106.1450 263° West 431 496 30,000 -48 Level Albuquerque Center
Mon 01:53:44 PM 31.9539 -106.2831 264° West 426 490 29,900 -48 Descending Albuquerque Center
Mon 01:54:46 PM 31.9653 -106.4497 275° West 426 490 29,900 48 Level Albuquerque Center
Mon 01:55:48 PM 31.9764 -106.5872 275° West 422 486 30,000 48 Climbing Albuquerque Center
Mon 01:56:50 PM 31.9864 -106.7244 275° West 420 483 30,000  Level Albuquerque Center
Mon 01:57:52 PM 31.9964 -106.8619 275° West 420 483 30,000  Level Albuquerque Center
Mon 01:58:54 PM 32.0069 -107.0011 275° West 424 488 30,000  Level Albuquerque Center
Mon 01:59:56 PM 32.0147 -107.1394 274° West 423 487 30,000  Level Albuquerque Center
Mon 02:00:58 PM 32.0233 -107.2753 274° West 417 480 30,000  Level Albuquerque Center
Mon 02:02:01 PM 32.0336 -107.4383 274° West 415 478 30,000 -48 Level Albuquerque Center
Mon 02:03:03 PM 32.0428 -107.5753 275° West 416 479 29,900  Descending Albuquerque Center
Mon 02:04:05 PM 32.0511 -107.7108 274° West 415 478 30,000 48 Climbing Albuquerque Center
Mon 02:05:07 PM 32.0592 -107.8461 274° West 414 476 30,000  Level Albuquerque Center
Mon 02:06:09 PM 32.0661 -107.9817 273° West 415 478 30,000  Level Albuquerque Center
Mon 02:07:11 PM 32.0753 -108.1372 274° West 413 475 30,000  Level Albuquerque Center
Mon 02:08:13 PM 32.0833 -108.2719 274° West 414 476 30,000  Level Albuquerque Center
Mon 02:09:15 PM 32.0903 -108.4058 274° West 413 475 30,000  Level Albuquerque Center
Mon 02:10:17 PM 32.0978 -108.5397 274° West 413 475 30,000  Level Albuquerque Center
Mon 02:11:19 PM 32.1053 -108.6756 274° West 416 479 30,000  Level Albuquerque Center
Mon 02:12:20 PM 32.1122 -108.8092 274° West 414 476 30,000  Level Albuquerque Center
Mon 02:13:22 PM 32.1214 -108.9714 274° West 415 478 30,000  Level Albuquerque Center
Mon 02:14:24 PM 32.1283 -109.1064 274° West 414 476 30,000  Level Albuquerque Center
Mon 02:15:26 PM 32.1347 -109.2400 273° West 412 474 30,000 -919 Level Albuquerque Center
Mon 02:16:28 PM 32.1492 -109.3722 277° West 409 471 28,100 -2,419 Descending Albuquerque Center
Mon 02:17:30 PM 32.1661 -109.5053 279° West 411 473 25,000 -2,732 Descending Albuquerque Center
Mon 02:18:31 PM 32.1833 -109.6350 279° West 406 467 22,500 -1,951 Descending Albuquerque Center
Mon 02:19:33 PM 32.2011 -109.7861 278° West 394 453 21,000 -1,161 Descending Albuquerque Center
Mon 02:20:35 PM 32.2033 -109.9125 271° West 392 451 20,100 -1,306 Descending Albuquerque Center
Mon 02:21:37 PM 32.1925 -110.0358 264° West 382 440 18,300 -1,707 Descending Albuquerque Center
Mon 02:22:38 PM 32.1806 -110.1567 263° West 378 435 16,600 -1,685 Descending Albuquerque Center
Mon 02:23:06 PM 32.1703 -110.2158 258° West 365 420 15,800 -1,548 Descending Albuquerque Center
Mon 02:23:40 PM 32.1678 -110.2694 267° West 359 413 15,000 -1,672 Descending Albuquerque Center
Mon 02:24:07 PM 32.1686 -110.3350 271° West 340 391 14,100 -1,452 Descending Albuquerque Center
Mon 02:24:42 PM 32.1789 -110.3808 285° West 330 380 13,500 -1,667 Descending Albuquerque Center
Mon 02:25:01 PM 32.1839 -110.4214 278° West 328 377 12,600 -2,032 Descending Albuquerque Center
Mon 02:25:44 PM 32.1972 -110.4836 284° West 322 371 11,400 -1,215 Descending Albuquerque Center
Mon 02:26:20 PM 32.2100 -110.5631 281° West 322 371 11,000 -393 Descending Albuquerque Center
Mon 02:26:45 PM 32.2150 -110.5875 284° West 322 371 11,000  Level Albuquerque Center
Mon 02:27:03 PM 32.2222 -110.6353 280° West 321 369 11,000 -968 Level Albuquerque Center
Mon 02:27:47 PM 32.2325 -110.6894 283° West 320 368 10,000 -1,770 Descending Albuquerque Center
Mon 02:28:04 PM 32.2394 -110.7342 280° West 313 360 9,200 -1,258 Descending Albuquerque Center
Mon 02:28:49 PM 32.2542 -110.8083 283° West 315 362 8,700 -962 Descending Albuquerque Center
Mon 02:29:50 PM 32.2719 -110.8997 283° West 306 352 7,500 -1,500 Descending Albuquerque Center
Mon 02:30:05 PM 32.2753 -110.9158 284° West 272 313 6,800 -1,452 Descending Albuquerque Center
Mon 02:30:52 PM 32.2831 -110.9803 278° West 281 323 6,000 -881 Descending Albuquerque Center
Mon 02:31:54 PM 32.2378 -111.0242 219° Southwest 249 287 5,200 -774 Descending Albuquerque Center

Login

Don't have an account? Register now (free) for customized features, flight alerts, and more!